createdAt,value
2022-12-24T00:00:19.335Z,99520.00
2022-12-24T00:02:47.077Z,99522.00
2022-12-24T00:05:14.978Z,99523.00
2022-12-24T00:07:42.654Z,99524.00
2022-12-24T00:10:11.556Z,99527.00
2022-12-24T00:12:39.306Z,99521.00
2022-12-24T00:15:09.832Z,99525.00
2022-12-24T00:17:37.557Z,99524.00
2022-12-24T00:20:06.171Z,99526.00
2022-12-24T00:22:33.872Z,99521.00
2022-12-24T00:25:01.634Z,99531.00
2022-12-24T00:27:29.323Z,99530.00
2022-12-24T00:29:57.021Z,99527.00
2022-12-24T00:32:26.040Z,99518.00
2022-12-24T00:34:53.688Z,99516.00
2022-12-24T00:37:21.361Z,99528.00
2022-12-24T00:39:49.000Z,99531.00
2022-12-24T00:42:16.696Z,99523.00
2022-12-24T00:44:44.379Z,99527.00
2022-12-24T00:47:12.384Z,99526.00
2022-12-24T00:49:41.456Z,99533.00
2022-12-24T00:52:09.144Z,99536.00
2022-12-24T00:54:36.784Z,99531.00
2022-12-24T00:57:04.620Z,99527.00
2022-12-24T00:59:32.264Z,99532.00
2022-12-24T01:02:00.072Z,99533.00
2022-12-24T01:04:45.359Z,99543.00
2022-12-24T01:07:14.385Z,99543.00
2022-12-24T01:09:42.034Z,99562.00
2022-12-24T01:12:09.694Z,99554.00
2022-12-24T01:14:38.356Z,99544.00
2022-12-24T01:17:06.141Z,99556.00
2022-12-24T01:19:34.441Z,99564.00
2022-12-24T01:22:02.120Z,99551.00
2022-12-24T01:24:31.177Z,99557.00
2022-12-24T01:26:58.839Z,99560.00
2022-12-24T01:29:26.494Z,99556.00
2022-12-24T01:31:54.129Z,99577.00
2022-12-24T01:34:21.821Z,99573.00
2022-12-24T01:36:49.474Z,99577.00
2022-12-24T01:39:17.169Z,99578.00
2022-12-24T01:42:03.805Z,99570.00
2022-12-24T01:44:37.097Z,99572.00
2022-12-24T01:47:10.192Z,99575.00
2022-12-24T01:49:40.379Z,99565.00
2022-12-24T01:52:11.747Z,99578.00
2022-12-24T01:54:43.211Z,99570.00
2022-12-24T01:57:16.937Z,99571.00
2022-12-24T01:59:47.103Z,99582.00
2022-12-24T02:02:15.197Z,99586.00
2022-12-24T02:04:47.594Z,99578.00
2022-12-24T02:07:15.371Z,99578.00
2022-12-24T02:09:43.675Z,99581.00
2022-12-24T02:12:12.686Z,99583.00
2022-12-24T02:14:40.416Z,99591.00
2022-12-24T02:17:19.442Z,99593.00
2022-12-24T02:20:12.815Z,99590.00
2022-12-24T02:22:53.593Z,99599.00
2022-12-24T02:25:33.985Z,99611.00
2022-12-24T02:28:14.327Z,99608.00
2022-12-24T02:30:49.545Z,99597.00
2022-12-24T02:33:27.070Z,99608.00
2022-12-24T02:36:05.142Z,99607.00
2022-12-24T02:38:38.241Z,99610.00
2022-12-24T02:41:10.277Z,99607.00
2022-12-24T02:43:40.816Z,99620.00
2022-12-24T02:46:13.936Z,99612.00
2022-12-24T02:48:44.286Z,99618.00
2022-12-24T02:51:12.954Z,99617.00
2022-12-24T02:53:41.344Z,99622.00
2022-12-24T02:56:38.244Z,99605.00
2022-12-24T02:59:36.490Z,99616.00
2022-12-24T03:02:19.504Z,99621.00
2022-12-24T03:04:53.643Z,99624.00
2022-12-24T03:07:26.319Z,99616.00
2022-12-24T03:10:04.135Z,99610.00
2022-12-24T03:12:34.437Z,99612.00
2022-12-24T03:15:03.192Z,99629.00
2022-12-24T03:17:35.339Z,99627.00
2022-12-24T03:20:03.778Z,99632.00
2022-12-24T03:22:32.316Z,99644.00
2022-12-24T03:25:00.025Z,99648.00
2022-12-24T03:27:30.065Z,99643.00
2022-12-24T03:29:58.460Z,99647.00
2022-12-24T03:32:32.180Z,99642.00
2022-12-24T03:35:01.395Z,99657.00
2022-12-24T03:37:29.126Z,99661.00
2022-12-24T03:39:56.787Z,99668.00
2022-12-24T03:42:24.444Z,99661.00
2022-12-24T03:44:52.097Z,99674.00
2022-12-24T03:47:19.778Z,99672.00
2022-12-24T03:49:47.449Z,99672.00
2022-12-24T03:52:16.481Z,99683.00
2022-12-24T03:54:44.155Z,99661.00
2022-12-24T03:57:11.888Z,99684.00
2022-12-24T03:59:39.580Z,99684.00
2022-12-24T04:02:07.657Z,99687.00
2022-12-24T04:04:36.821Z,99699.00
2022-12-24T04:07:04.530Z,99706.00
2022-12-24T04:09:34.265Z,99706.00
2022-12-24T04:12:01.989Z,99714.00
2022-12-24T04:14:29.659Z,99720.00
2022-12-24T04:16:57.399Z,99727.00
2022-12-24T04:19:25.076Z,99728.00
2022-12-24T04:21:52.736Z,99731.00
2022-12-24T04:24:20.405Z,99725.00
2022-12-24T04:26:49.414Z,99739.00
2022-12-24T04:29:17.148Z,99726.00
2022-12-24T04:31:44.926Z,99738.00
2022-12-24T04:34:12.655Z,99741.00
2022-12-24T04:36:40.362Z,99753.00
2022-12-24T04:39:08.129Z,99746.00
2022-12-24T04:41:35.821Z,99749.00
2022-12-24T04:44:04.926Z,99755.00
2022-12-24T04:46:33.005Z,99742.00
2022-12-24T04:49:00.780Z,99748.00
2022-12-24T04:51:29.435Z,99759.00
2022-12-24T04:53:57.992Z,99757.00
2022-12-24T04:56:27.453Z,99762.00
2022-12-24T04:58:55.808Z,99764.00
2022-12-24T05:01:26.148Z,99769.00
2022-12-24T05:03:54.811Z,99774.00
2022-12-24T05:06:26.278Z,99767.00
2022-12-24T05:08:55.815Z,99779.00
2022-12-24T05:11:24.153Z,99762.00
2022-12-24T05:13:51.991Z,99769.00
2022-12-24T05:16:21.713Z,99788.00
2022-12-24T05:18:51.198Z,99791.00
2022-12-24T05:21:21.411Z,99791.00
2022-12-24T05:24:06.934Z,99805.00
2022-12-24T05:26:38.708Z,99805.00
2022-12-24T05:29:07.783Z,99797.00
2022-12-24T05:31:36.216Z,99789.00
2022-12-24T05:34:05.262Z,99800.00
2022-12-24T05:36:33.408Z,99808.00
2022-12-24T05:39:01.605Z,99809.00
2022-12-24T05:41:29.380Z,99827.00
2022-12-24T05:43:57.217Z,99829.00
2022-12-24T05:46:26.369Z,99828.00
2022-12-24T05:48:54.453Z,99838.00
2022-12-24T05:51:24.597Z,99839.00
2022-12-24T05:53:52.827Z,99843.00
2022-12-24T05:56:22.768Z,99838.00
2022-12-24T05:58:52.104Z,99843.00
2022-12-24T06:01:20.497Z,99863.00
2022-12-24T06:03:49.626Z,99860.00
2022-12-24T06:06:20.768Z,99869.00
2022-12-24T06:08:50.799Z,99871.00
2022-12-24T06:11:23.207Z,99876.00
2022-12-24T06:13:51.119Z,99876.00
2022-12-24T06:16:20.469Z,99880.00
2022-12-24T06:18:48.466Z,99880.00
2022-12-24T06:21:17.071Z,99891.00
2022-12-24T06:23:46.103Z,99884.00
2022-12-24T06:26:17.373Z,99896.00
2022-12-24T06:28:45.952Z,99895.00
2022-12-24T06:31:16.489Z,99912.00
2022-12-24T06:33:44.622Z,99900.00
2022-12-24T06:36:17.684Z,99913.00
2022-12-24T06:38:45.968Z,99908.00
2022-12-24T06:41:15.552Z,99910.00
2022-12-24T06:43:45.982Z,99912.00
2022-12-24T06:46:14.698Z,99913.00
2022-12-24T06:48:43.309Z,99934.00
2022-12-24T06:51:11.025Z,99928.00
2022-12-24T06:53:38.690Z,99935.00
2022-12-24T06:56:08.019Z,99933.00
2022-12-24T06:58:37.521Z,99929.00
2022-12-24T07:01:08.194Z,99927.00
2022-12-24T07:03:36.231Z,99926.00
2022-12-24T07:06:04.063Z,99937.00
2022-12-24T07:08:33.542Z,99945.00
2022-12-24T07:11:01.621Z,99939.00
2022-12-24T07:13:29.749Z,99950.00
2022-12-24T07:16:03.245Z,99957.00
2022-12-24T07:18:31.048Z,99963.00
2022-12-24T07:20:58.991Z,99970.00
2022-12-24T07:23:26.699Z,99968.00
2022-12-24T07:25:54.353Z,99961.00
2022-12-24T07:28:27.489Z,99969.00
2022-12-24T07:30:55.855Z,99989.00
2022-12-24T07:33:24.901Z,99972.00
2022-12-24T07:35:59.882Z,99974.00
2022-12-24T07:38:27.917Z,99977.00
2022-12-24T07:40:55.641Z,99983.00
2022-12-24T07:43:24.060Z,99991.00
2022-12-24T07:45:51.893Z,100005.00
2022-12-24T07:48:19.573Z,99999.00
2022-12-24T07:50:50.118Z,100015.00
2022-12-24T07:53:17.847Z,100012.00
2022-12-24T07:55:45.835Z,100016.00
2022-12-24T07:58:13.629Z,100027.00
2022-12-24T08:00:41.346Z,100028.00
2022-12-24T08:03:09.061Z,100042.00
2022-12-24T08:05:37.403Z,100042.00
2022-12-24T08:08:06.404Z,100042.00
2022-12-24T08:10:34.059Z,100037.00
2022-12-24T08:13:01.754Z,100042.00
2022-12-24T08:15:29.435Z,100046.00
2022-12-24T08:17:57.383Z,100043.00
2022-12-24T08:20:25.105Z,100046.00
2022-12-24T08:22:53.717Z,100042.00
2022-12-24T08:25:22.728Z,100051.00
2022-12-24T08:27:50.451Z,100062.00
2022-12-24T08:30:21.331Z,100074.00
2022-12-24T08:32:49.456Z,100075.00
2022-12-24T08:35:17.366Z,100086.00
2022-12-24T08:37:45.066Z,100088.00
2022-12-24T08:40:13.884Z,100081.00
2022-12-24T08:42:43.029Z,100091.00
2022-12-24T08:45:11.850Z,100087.00
2022-12-24T08:47:39.731Z,100103.00
2022-12-24T08:50:08.869Z,100108.00
2022-12-24T08:52:36.977Z,100108.00
2022-12-24T08:55:05.714Z,100121.00
2022-12-24T08:57:36.437Z,100120.00
2022-12-24T09:00:07.710Z,100119.00
2022-12-24T09:02:35.647Z,100124.00
2022-12-24T09:05:03.497Z,100123.00
2022-12-24T09:07:31.517Z,100115.00
2022-12-24T09:09:59.281Z,100129.00
2022-12-24T09:12:26.954Z,100130.00
2022-12-24T09:15:01.281Z,100134.00
2022-12-24T09:17:32.277Z,100135.00
2022-12-24T09:19:59.954Z,100146.00
2022-12-24T09:22:27.806Z,100152.00
2022-12-24T09:24:56.008Z,100141.00
2022-12-24T09:27:23.765Z,100153.00
2022-12-24T09:29:51.469Z,100152.00
2022-12-24T09:32:19.947Z,100171.00
2022-12-24T09:34:49.275Z,100171.00
2022-12-24T09:37:17.120Z,100176.00
2022-12-24T09:39:44.952Z,100181.00
2022-12-24T09:42:24.900Z,100183.00
2022-12-24T09:44:59.256Z,100187.00
2022-12-24T09:47:32.838Z,100196.00
2022-12-24T09:50:05.545Z,100192.00
2022-12-24T09:52:37.536Z,100194.00
2022-12-24T09:55:16.588Z,100206.00
2022-12-24T09:57:45.933Z,100205.00
2022-12-24T10:00:21.647Z,100213.00
2022-12-24T10:02:49.437Z,100215.00
2022-12-24T10:05:35.991Z,100216.00
2022-12-24T10:08:11.289Z,100213.00
2022-12-24T10:10:47.552Z,100216.00
2022-12-24T10:13:22.047Z,100207.00
2022-12-24T10:15:56.039Z,100218.00
2022-12-24T10:18:35.277Z,100218.00
2022-12-24T10:21:13.266Z,100220.00
2022-12-24T10:23:47.573Z,100223.00
2022-12-24T10:26:21.112Z,100229.00
2022-12-24T10:28:54.476Z,100231.00
2022-12-24T10:31:26.786Z,100231.00
2022-12-24T10:33:59.126Z,100237.00
2022-12-24T10:36:30.508Z,100235.00
2022-12-24T10:38:58.860Z,100239.00
2022-12-24T10:41:28.772Z,100239.00
2022-12-24T10:43:57.318Z,100235.00
2022-12-24T10:46:32.497Z,100237.00
2022-12-24T10:49:02.841Z,100241.00
2022-12-24T10:51:40.196Z,100236.00
2022-12-24T10:54:13.239Z,100251.00
2022-12-24T10:56:42.975Z,100238.00
2022-12-24T10:59:25.669Z,100265.00
2022-12-24T11:01:54.160Z,100262.00
2022-12-24T11:04:23.607Z,100248.00
2022-12-24T11:06:57.764Z,100258.00
2022-12-24T11:09:28.205Z,100258.00
2022-12-24T11:11:57.312Z,100256.00
2022-12-24T11:14:26.392Z,100263.00
2022-12-24T11:16:55.597Z,100250.00
2022-12-24T11:19:32.291Z,100259.00
2022-12-24T11:22:04.629Z,100257.00
2022-12-24T11:24:34.756Z,100267.00
2022-12-24T11:27:29.473Z,100274.00
2022-12-24T11:30:21.593Z,100273.00
2022-12-24T11:32:51.351Z,100264.00
2022-12-24T11:35:21.613Z,100277.00
2022-12-24T11:37:50.986Z,100273.00
2022-12-24T11:40:26.582Z,100268.00
2022-12-24T11:43:01.333Z,100275.00
2022-12-24T11:45:31.057Z,100267.00
2022-12-24T11:47:59.722Z,100279.00
2022-12-24T11:50:30.142Z,100269.00
2022-12-24T11:53:04.530Z,100272.00
2022-12-24T11:55:42.256Z,100272.00
2022-12-24T11:58:20.942Z,100270.00
2022-12-24T12:00:51.467Z,100275.00
2022-12-24T12:03:31.477Z,100284.00
2022-12-24T12:06:02.656Z,100273.00
2022-12-24T12:08:32.359Z,100274.00
2022-12-24T12:11:00.988Z,100283.00
2022-12-24T12:13:33.240Z,100285.00
2022-12-24T12:16:15.625Z,100281.00
2022-12-24T12:18:50.295Z,100286.00
2022-12-24T12:21:21.002Z,100286.00
2022-12-24T12:23:53.787Z,100284.00
2022-12-24T12:26:25.688Z,100288.00
2022-12-24T12:28:57.528Z,100285.00
2022-12-24T12:31:28.682Z,100288.00
2022-12-24T12:34:00.203Z,100300.00
2022-12-24T12:36:33.538Z,100300.00
2022-12-24T12:39:02.820Z,100294.00
2022-12-24T12:41:47.004Z,100317.00
2022-12-24T12:44:31.025Z,100314.00
2022-12-24T12:47:25.701Z,100321.00
2022-12-24T12:50:01.181Z,100332.00
2022-12-24T12:52:44.350Z,100330.00
2022-12-24T12:55:28.278Z,100316.00
2022-12-24T12:58:01.792Z,100314.00
2022-12-24T13:00:32.182Z,100324.00
2022-12-24T13:03:44.400Z,100321.00
2022-12-24T13:06:38.285Z,100326.00
2022-12-24T13:09:42.076Z,100325.00
2022-12-24T13:12:26.003Z,100334.00
2022-12-24T13:15:22.817Z,100334.00
2022-12-24T13:18:10.633Z,100335.00
2022-12-24T13:20:47.433Z,100344.00
2022-12-24T13:23:19.826Z,100352.00
2022-12-24T13:25:49.189Z,100341.00
2022-12-24T13:28:34.023Z,100335.00
2022-12-24T13:31:28.074Z,100345.00
2022-12-24T13:33:58.031Z,100344.00
2022-12-24T13:36:26.094Z,100346.00
2022-12-24T13:38:54.771Z,100349.00
2022-12-24T13:41:59.140Z,100356.00
2022-12-24T13:44:36.024Z,100345.00
2022-12-24T13:47:29.982Z,100355.00
2022-12-24T13:50:22.031Z,100393.00
2022-12-24T13:52:53.314Z,100432.00
2022-12-24T13:55:21.649Z,100402.00
2022-12-24T13:57:58.983Z,100412.00
2022-12-24T14:00:42.739Z,100402.00
2022-12-24T14:03:29.143Z,100393.00
2022-12-24T14:06:00.450Z,100398.00
2022-12-24T14:08:42.053Z,100394.00
2022-12-24T14:11:13.484Z,100399.00
2022-12-24T14:14:10.994Z,100402.00
2022-12-24T14:16:50.512Z,100407.00
2022-12-24T14:19:22.276Z,100414.00
2022-12-24T14:21:59.141Z,100415.00
2022-12-24T14:24:32.668Z,100414.00
2022-12-24T14:27:09.289Z,100412.00
2022-12-24T14:29:45.754Z,100427.00
2022-12-24T14:32:17.566Z,100421.00
2022-12-24T14:34:46.016Z,100434.00
2022-12-24T14:37:14.734Z,100437.00
2022-12-24T14:39:47.873Z,100446.00
2022-12-24T14:42:31.108Z,100437.00
2022-12-24T14:45:08.425Z,100450.00
2022-12-24T14:47:45.831Z,100451.00
2022-12-24T14:50:46.650Z,100457.00
2022-12-24T14:53:26.418Z,100465.00
2022-12-24T14:55:54.100Z,100463.00
2022-12-24T14:58:29.776Z,100472.00
2022-12-24T15:00:59.611Z,100476.00
2022-12-24T15:03:30.621Z,100478.00
2022-12-24T15:06:01.212Z,100487.00
2022-12-24T15:08:32.066Z,100487.00
2022-12-24T15:11:03.962Z,100484.00
2022-12-24T15:13:37.086Z,100491.00
2022-12-24T15:16:07.369Z,100492.00
2022-12-24T15:18:39.407Z,100496.00
2022-12-24T15:21:15.178Z,100506.00
2022-12-24T15:23:49.252Z,100502.00
2022-12-24T15:26:24.248Z,100509.00
2022-12-24T15:28:58.273Z,100502.00
2022-12-24T15:31:31.130Z,100521.00
2022-12-24T15:34:01.374Z,100519.00
2022-12-24T15:36:32.270Z,100524.00
2022-12-24T15:39:03.198Z,100525.00
2022-12-24T15:41:37.935Z,100532.00
2022-12-24T15:44:06.037Z,100530.00
2022-12-24T15:46:34.160Z,100532.00
2022-12-24T15:49:04.144Z,100537.00
2022-12-24T15:51:34.514Z,100541.00
2022-12-24T15:54:12.025Z,100539.00
2022-12-24T15:56:43.811Z,100537.00
2022-12-24T15:59:26.806Z,100544.00
2022-12-24T16:01:54.888Z,100549.00
2022-12-24T16:04:26.307Z,100545.00
2022-12-24T16:06:58.732Z,100554.00
2022-12-24T16:09:47.119Z,100556.00
2022-12-24T16:12:18.201Z,100561.00
2022-12-24T16:14:52.241Z,100558.00
2022-12-24T16:17:22.760Z,100556.00
2022-12-24T16:19:54.942Z,100567.00
2022-12-24T16:22:35.117Z,100569.00
2022-12-24T16:25:16.532Z,100571.00
2022-12-24T16:27:44.335Z,100580.00
2022-12-24T16:30:13.253Z,100571.00
2022-12-24T16:32:42.034Z,100588.00
2022-12-24T16:35:21.583Z,100587.00
2022-12-24T16:37:49.256Z,100589.00
2022-12-24T16:40:23.327Z,100597.00
2022-12-24T16:43:12.019Z,100590.00
2022-12-24T16:45:39.779Z,100593.00
2022-12-24T16:48:08.129Z,100605.00
2022-12-24T16:50:37.417Z,100606.00
2022-12-24T16:53:05.128Z,100599.00
2022-12-24T16:55:32.831Z,100606.00
2022-12-24T16:58:00.567Z,100615.00
2022-12-24T17:00:28.521Z,100604.00
2022-12-24T17:02:56.733Z,100613.00
2022-12-24T17:05:24.824Z,100601.00
2022-12-24T17:07:53.893Z,100607.00
2022-12-24T17:10:21.578Z,100609.00
2022-12-24T17:12:49.258Z,100606.00
2022-12-24T17:15:17.111Z,100610.00
2022-12-24T17:17:44.833Z,100618.00
2022-12-24T17:20:16.696Z,100618.00
2022-12-24T17:22:46.757Z,100617.00
2022-12-24T17:25:15.979Z,100623.00
2022-12-24T17:27:43.805Z,100613.00
2022-12-24T17:30:12.067Z,100627.00
2022-12-24T17:32:39.949Z,100621.00
2022-12-24T17:35:09.355Z,100625.00
2022-12-24T17:37:37.070Z,100633.00
2022-12-24T17:40:05.569Z,100620.00
2022-12-24T17:42:34.627Z,100630.00
2022-12-24T17:45:02.318Z,100632.00
2022-12-24T17:47:39.862Z,100596.00
2022-12-24T17:50:27.880Z,100603.00
2022-12-24T17:53:01.542Z,100598.00
2022-12-24T17:55:34.688Z,100636.00
2022-12-24T17:58:16.989Z,100606.00
2022-12-24T18:00:56.814Z,100633.00
2022-12-24T18:03:28.972Z,100608.00
2022-12-24T18:06:06.080Z,100644.00
2022-12-24T18:08:40.388Z,100633.00
2022-12-24T18:11:20.218Z,100593.00
2022-12-24T18:14:07.776Z,100642.00
2022-12-24T18:16:49.853Z,100672.00
2022-12-24T18:19:33.934Z,100674.00
2022-12-24T18:22:10.536Z,100677.00
2022-12-24T18:24:46.310Z,100675.00
2022-12-24T18:27:22.921Z,100669.00
2022-12-24T18:30:27.590Z,100620.00
2022-12-24T18:33:18.572Z,100661.00
2022-12-24T18:36:00.938Z,100689.00
2022-12-24T18:38:36.030Z,100652.00
2022-12-24T18:41:30.965Z,100687.00
2022-12-24T18:44:25.923Z,100669.00
2022-12-24T18:47:38.278Z,100680.00
2022-12-24T18:51:14.465Z,100673.00
2022-12-24T18:54:23.971Z,100687.00
2022-12-24T18:57:00.500Z,100691.00
2022-12-24T18:59:46.868Z,100703.00
2022-12-24T19:02:40.824Z,100658.00
2022-12-24T19:05:25.568Z,100709.00
2022-12-24T19:08:22.267Z,100664.00
2022-12-24T19:11:15.718Z,100664.00
2022-12-24T19:13:56.673Z,100647.00
2022-12-24T19:16:50.343Z,100643.00
2022-12-24T19:19:34.201Z,100657.00
2022-12-24T19:22:12.164Z,100686.00
2022-12-24T19:24:40.384Z,100661.00
2022-12-24T19:27:14.938Z,100688.00
2022-12-24T19:29:56.486Z,100647.00
2022-12-24T19:32:33.467Z,100694.00
2022-12-24T19:35:30.807Z,100679.00
2022-12-24T19:38:13.546Z,100688.00
2022-12-24T19:40:57.153Z,100688.00
2022-12-24T19:44:02.188Z,100687.00
2022-12-24T19:46:38.378Z,100699.00
2022-12-24T19:49:25.419Z,100675.00
2022-12-24T19:53:12.084Z,100689.00
2022-12-24T19:56:04.427Z,100732.00
2022-12-24T19:58:41.595Z,100697.00
2022-12-24T20:01:17.278Z,100729.00
2022-12-24T20:03:59.723Z,100742.00
2022-12-24T20:06:32.340Z,100727.00
2022-12-24T20:09:14.221Z,100738.00
2022-12-24T20:11:54.802Z,100742.00
2022-12-24T20:14:36.713Z,100737.00
2022-12-24T20:17:14.422Z,100729.00
2022-12-24T20:19:48.118Z,100736.00
2022-12-24T20:22:18.548Z,100747.00
2022-12-24T20:24:46.784Z,100719.00
2022-12-24T20:27:29.823Z,100760.00
2022-12-24T20:29:57.911Z,100719.00
2022-12-24T20:32:30.499Z,100765.00
2022-12-24T20:34:58.987Z,100730.00
2022-12-24T20:37:27.328Z,100770.00
2022-12-24T20:39:55.437Z,100763.00
2022-12-24T20:42:25.007Z,100750.00
2022-12-24T20:44:55.747Z,100777.00
2022-12-24T20:47:27.315Z,100747.00
2022-12-24T20:49:56.003Z,100763.00
2022-12-24T20:52:24.436Z,100785.00
2022-12-24T20:54:55.397Z,100782.00
2022-12-24T20:57:31.440Z,100748.00
2022-12-24T21:00:17.182Z,100741.00
2022-12-24T21:02:49.966Z,100747.00
2022-12-24T21:05:21.560Z,100789.00
2022-12-24T21:11:10.295Z,100781.00
2022-12-24T21:13:39.506Z,100783.00
2022-12-24T21:16:11.116Z,100749.00
2022-12-24T21:18:42.474Z,100763.00
2022-12-24T21:21:33.964Z,100749.00
2022-12-24T21:24:13.584Z,100765.00
2022-12-24T21:26:44.163Z,100770.00
2022-12-24T21:29:28.128Z,100789.00
2022-12-24T21:32:10.104Z,100783.00
2022-12-24T21:34:43.135Z,100770.00
2022-12-24T21:37:11.420Z,100742.00
2022-12-24T21:39:41.878Z,100785.00
2022-12-24T21:42:10.147Z,100751.00
2022-12-24T21:44:39.815Z,100794.00
2022-12-24T21:47:46.098Z,100787.00
2022-12-24T21:50:32.529Z,100780.00
2022-12-24T21:53:14.565Z,100793.00
2022-12-24T21:55:42.856Z,100766.00
2022-12-24T21:58:09.812Z,100795.00
2022-12-24T22:00:39.253Z,100793.00
2022-12-24T22:03:07.627Z,100773.00
2022-12-24T22:05:36.412Z,100770.00
2022-12-24T22:08:22.193Z,100801.00
2022-12-24T22:11:07.471Z,100795.00
2022-12-24T22:13:35.687Z,100777.00
2022-12-24T22:16:05.441Z,100768.00
2022-12-24T22:18:33.747Z,100800.00
2022-12-24T22:21:06.112Z,100798.00
2022-12-24T22:23:42.073Z,100769.00
2022-12-24T22:26:14.997Z,100787.00
2022-12-24T22:28:43.300Z,100817.00
2022-12-24T22:31:19.566Z,100796.00
2022-12-24T22:33:48.101Z,100814.00
2022-12-24T22:36:16.225Z,100816.00
2022-12-24T22:38:44.699Z,100812.00
2022-12-24T22:41:14.918Z,100793.00
2022-12-24T22:43:47.055Z,100759.00
2022-12-24T22:46:15.446Z,100761.00
2022-12-24T22:48:48.662Z,100774.00
2022-12-24T22:51:26.360Z,100818.00
2022-12-24T22:53:59.812Z,100773.00
2022-12-24T22:56:43.127Z,100812.00
2022-12-24T22:59:34.512Z,100815.00
2022-12-24T23:02:06.969Z,100775.00
2022-12-24T23:04:50.057Z,100788.00
2022-12-24T23:07:25.187Z,100763.00
2022-12-24T23:10:12.108Z,100780.00
2022-12-24T23:12:58.018Z,100811.00
2022-12-24T23:15:26.373Z,100801.00
2022-12-24T23:17:58.263Z,100776.00
2022-12-24T23:20:28.694Z,100797.00
2022-12-24T23:22:56.966Z,100748.00
2022-12-24T23:25:27.013Z,100742.00
2022-12-24T23:28:03.128Z,100744.00
2022-12-24T23:30:37.033Z,100804.00
2022-12-24T23:33:17.502Z,100791.00
2022-12-24T23:36:30.727Z,100801.00
2022-12-24T23:39:12.897Z,100802.00
2022-12-24T23:42:10.948Z,100798.00
2022-12-24T23:45:05.836Z,100795.00
2022-12-24T23:47:51.623Z,100789.00
2022-12-24T23:50:46.630Z,100765.00
2022-12-24T23:53:29.004Z,100783.00
2022-12-24T23:56:14.175Z,100772.00
2022-12-24T23:59:07.730Z,100801.00
